createdAt,value
2022-09-21T00:00:30.308Z,85.5
2022-09-21T00:01:30.318Z,85.03
2022-09-21T00:02:30.410Z,84.65
2022-09-21T00:03:30.283Z,84.17
2022-09-21T00:04:30.243Z,84.17
2022-09-21T00:05:29.969Z,83.51
2022-09-21T00:06:29.956Z,83.7
2022-09-21T00:07:29.935Z,83.84
2022-09-21T00:08:30.180Z,83.94
2022-09-21T00:09:30.156Z,83.61
2022-09-21T00:10:30.147Z,83.89
2022-09-21T00:11:29.869Z,83.65
2022-09-21T00:12:29.857Z,83.65
2022-09-21T00:13:30.093Z,83.74
2022-09-21T00:14:30.079Z,83.55
2022-09-21T00:15:30.070Z,83.84
2022-09-21T00:16:30.174Z,83.94
2022-09-21T00:17:30.034Z,83.46
2022-09-21T00:18:30.058Z,83.27
2022-09-21T00:19:30.030Z,83.36
2022-09-21T00:20:29.723Z,83.27
2022-09-21T00:21:29.712Z,82.79
2022-09-21T00:22:29.692Z,82.89
2022-09-21T00:23:29.674Z,82.98
2022-09-21T00:24:29.913Z,82.89
2022-09-21T00:25:29.899Z,82.98
2022-09-21T00:26:29.879Z,82.79
2022-09-21T00:27:29.869Z,83.17
2022-09-21T00:28:29.851Z,83.84
2022-09-21T00:29:29.581Z,83.65
2022-09-21T00:30:29.818Z,83.84
2022-09-21T00:31:29.712Z,83.65
2022-09-21T00:32:29.784Z,84.31
2022-09-21T00:33:29.773Z,84.12
2022-09-21T00:34:29.527Z,84.5
2022-09-21T00:35:29.764Z,84.59
2022-09-21T00:36:29.730Z,84.78
2022-09-21T00:37:29.466Z,84.98
2022-09-21T00:38:29.436Z,85.55
2022-09-21T00:39:29.423Z,85.36
2022-09-21T00:40:29.760Z,85.83
2022-09-21T00:41:29.388Z,86.02
2022-09-21T00:42:29.623Z,86.11
2022-09-21T00:43:29.356Z,86.78
2022-09-21T00:44:29.597Z,86.59
2022-09-21T00:45:29.646Z,86.78
2022-09-21T00:46:29.561Z,87.25
2022-09-21T00:47:29.292Z,86.93
2022-09-21T00:48:29.534Z,86.83
2022-09-21T00:49:29.257Z,86.83
2022-09-21T00:50:29.525Z,86.93
2022-09-21T00:51:29.506Z,87.12
2022-09-21T00:52:29.465Z,86.83
2022-09-21T00:53:29.451Z,87.3
2022-09-21T00:54:29.196Z,86.93
2022-09-21T00:55:29.162Z,87.21
2022-09-21T00:56:29.399Z,87.77
2022-09-21T00:57:29.132Z,87.59
2022-09-21T00:58:29.112Z,88.16
2022-09-21T00:59:32.544Z,88.44
2022-09-21T01:00:29.338Z,88.35
2022-09-21T01:01:29.193Z,88.35
2022-09-21T01:02:29.242Z,88.92
2022-09-21T01:03:29.289Z,88.54
2022-09-21T01:04:29.280Z,88.44
2022-09-21T01:05:29.260Z,88.35
2022-09-21T01:06:29.263Z,88.73
2022-09-21T01:07:29.255Z,88.73
2022-09-21T01:08:28.952Z,88.54
2022-09-21T01:09:29.203Z,88.92
2022-09-21T01:10:28.917Z,88.82
2022-09-21T01:11:29.163Z,88.63
2022-09-21T01:12:29.144Z,88.16
2022-09-21T01:13:29.129Z,87.87
2022-09-21T01:14:29.137Z,87.97
2022-09-21T01:15:28.842Z,87.77
2022-09-21T01:16:28.957Z,87.4
2022-09-21T01:17:29.063Z,87.59
2022-09-21T01:18:29.048Z,88.16
2022-09-21T01:19:28.774Z,88.16
2022-09-21T01:20:28.766Z,88.54
2022-09-21T01:21:28.994Z,88.63
2022-09-21T01:22:29.167Z,88.73
2022-09-21T01:23:28.987Z,88.35
2022-09-21T01:24:28.952Z,88.44
2022-09-21T01:25:28.932Z,87.68
2022-09-21T01:26:28.918Z,87.59
2022-09-21T01:27:28.658Z,87.68
2022-09-21T01:28:28.626Z,87.3
2022-09-21T01:29:28.882Z,87.21
2022-09-21T01:30:28.595Z,87.02
2022-09-21T01:31:28.916Z,86.93
2022-09-21T01:32:28.568Z,86.83
2022-09-21T01:33:28.543Z,86.45
2022-09-21T01:34:28.787Z,86.35
2022-09-21T01:35:28.511Z,86.26
2022-09-21T01:36:28.496Z,86.55
2022-09-21T01:37:28.733Z,86.45
2022-09-21T01:38:28.486Z,86.83
2022-09-21T01:39:28.723Z,86.74
2022-09-21T01:40:31.996Z,86.93
2022-09-21T01:41:28.666Z,86.93
2022-09-21T01:42:28.653Z,87.21
2022-09-21T01:43:28.378Z,87.49
2022-09-21T01:44:28.621Z,86.93
2022-09-21T01:45:28.425Z,87.59
2022-09-21T01:46:28.589Z,87.87
2022-09-21T01:47:28.314Z,87.77
2022-09-21T01:48:28.553Z,87.68
2022-09-21T01:49:28.534Z,88.16
2022-09-21T01:50:28.270Z,88.82
2022-09-21T01:51:28.502Z,88.4
2022-09-21T01:52:28.235Z,88.3
2022-09-21T01:53:28.226Z,88.49
2022-09-21T01:54:28.477Z,88.3
2022-09-21T01:55:28.547Z,88.68
2022-09-21T01:56:28.192Z,88.4
2022-09-21T01:57:28.410Z,88.02
2022-09-21T01:58:28.130Z,87.54
2022-09-21T01:59:28.369Z,86.88
2022-09-21T02:00:28.434Z,87.26
2022-09-21T02:01:28.338Z,87.64
2022-09-21T02:02:28.319Z,87.92
2022-09-21T02:03:28.304Z,88.11
2022-09-21T02:04:28.287Z,88.49
2022-09-21T02:05:28.017Z,88.87
2022-09-21T02:06:28.254Z,88.4
2022-09-21T02:07:28.240Z,88.3
2022-09-21T02:08:27.971Z,88.3
2022-09-21T02:09:27.956Z,88.96
2022-09-21T02:10:28.211Z,89.06
2022-09-21T02:11:28.202Z,88.96
2022-09-21T02:12:28.159Z,89.34
2022-09-21T02:13:28.140Z,89.82
2022-09-21T02:14:28.123Z,90.2
2022-09-21T02:15:28.111Z,90.2
2022-09-21T02:16:27.915Z,89.72
2022-09-21T02:17:28.081Z,88.96
2022-09-21T02:18:27.802Z,88.59
2022-09-21T02:19:28.040Z,88.78
2022-09-21T02:20:28.026Z,87.92
2022-09-21T02:21:27.753Z,87.64
2022-09-21T02:22:27.990Z,87.45
2022-09-21T02:23:27.721Z,87.26
2022-09-21T02:24:27.956Z,86.98
2022-09-21T02:25:27.683Z,86.98
2022-09-21T02:26:27.694Z,86.98
2022-09-21T02:27:27.931Z,87.07
2022-09-21T02:28:27.888Z,87.73
2022-09-21T02:29:27.880Z,88.02
2022-09-21T02:30:27.876Z,88.68
2022-09-21T02:31:27.930Z,88.87
2022-09-21T02:32:27.822Z,88.87
2022-09-21T02:33:27.807Z,89.15
2022-09-21T02:34:27.535Z,89.34
2022-09-21T02:35:27.785Z,89.34
2022-09-21T02:36:27.505Z,89.15
2022-09-21T02:37:27.747Z,89.06
2022-09-21T02:38:27.468Z,88.49
2022-09-21T02:39:27.708Z,88.49
2022-09-21T02:40:27.577Z,88.11
2022-09-21T02:41:27.420Z,87.64
2022-09-21T02:42:27.679Z,87.73
2022-09-21T02:43:27.666Z,87.45
2022-09-21T02:44:27.632Z,87.54
2022-09-21T02:45:27.349Z,86.79
2022-09-21T02:46:27.478Z,87.07
2022-09-21T02:47:27.320Z,87.07
2022-09-21T02:48:27.305Z,87.07
2022-09-21T02:49:27.540Z,86.88
2022-09-21T02:50:27.518Z,87.07
2022-09-21T02:51:27.253Z,87.26
2022-09-21T02:52:27.489Z,86.88
2022-09-21T02:53:27.477Z,86.69
2022-09-21T02:54:27.458Z,87.16
2022-09-21T02:55:27.183Z,86.88
2022-09-21T02:56:27.424Z,87.07
2022-09-21T02:57:27.402Z,86.88
2022-09-21T02:58:27.412Z,86.41
2022-09-21T02:59:27.396Z,86.12
2022-09-21T03:00:27.280Z,86.31
2022-09-21T03:01:27.349Z,86.03
2022-09-21T03:02:27.319Z,86.22
2022-09-21T03:03:27.095Z,86.22
2022-09-21T03:04:27.030Z,86.6
2022-09-21T03:05:27.305Z,86.6
2022-09-21T03:06:27.255Z,86.69
2022-09-21T03:07:27.235Z,86.69
2022-09-21T03:08:27.221Z,86.12
2022-09-21T03:09:26.948Z,86.31
2022-09-21T03:10:27.193Z,86.22
2022-09-21T03:11:27.172Z,85.74
2022-09-21T03:12:27.158Z,85.65
2022-09-21T03:13:27.133Z,85.08
2022-09-21T03:14:26.884Z,85.55
2022-09-21T03:15:27.133Z,85.08
2022-09-21T03:16:27.086Z,84.7
2022-09-21T03:17:27.069Z,84.7
2022-09-21T03:18:26.793Z,85.08
2022-09-21T03:19:27.028Z,84.74
2022-09-21T03:20:27.016Z,84.61
2022-09-21T03:21:27.002Z,85.03
2022-09-21T03:22:26.729Z,84.65
2022-09-21T03:23:26.707Z,84.65
2022-09-21T03:24:26.695Z,84.65
2022-09-21T03:25:26.679Z,84.32
2022-09-21T03:26:26.918Z,84.36
2022-09-21T03:27:26.640Z,84.36
2022-09-21T03:28:26.637Z,84.46
2022-09-21T03:29:26.608Z,84.36
2022-09-21T03:30:26.875Z,84.65
2022-09-21T03:31:27.011Z,84.55
2022-09-21T03:32:26.818Z,84.84
2022-09-21T03:49:23.020Z,86.69
2022-09-21T03:50:22.956Z,86.69
2022-09-21T03:51:22.936Z,87.07
2022-09-21T03:52:22.911Z,87.35
2022-09-21T03:53:22.895Z,87.83
2022-09-21T03:54:22.873Z,87.92
2022-09-21T03:55:22.860Z,88.11
2022-09-21T03:56:22.581Z,88.3
2022-09-21T03:57:22.565Z,88.78
2022-09-21T03:58:22.545Z,88.4
2022-09-21T03:59:22.537Z,88.4
2022-09-21T04:00:22.513Z,88.87
2022-09-21T04:01:22.721Z,89.06
2022-09-21T04:02:22.634Z,89.2
2022-09-21T04:03:22.730Z,88.92
2022-09-21T04:04:22.437Z,89.44
2022-09-21T04:05:22.732Z,89.49
2022-09-21T04:06:22.406Z,89.2
2022-09-21T04:07:22.645Z,89.2
2022-09-21T04:08:22.367Z,89.68
2022-09-21T04:09:22.354Z,89.58
2022-09-21T04:10:22.337Z,89.39
2022-09-21T04:11:22.574Z,89.11
2022-09-21T04:12:22.304Z,88.82
2022-09-21T04:13:22.286Z,88.92
2022-09-21T04:14:22.524Z,88.92
2022-09-21T04:15:22.506Z,88.92
2022-09-21T04:16:22.485Z,88.73
2022-09-21T04:17:22.214Z,88.54
2022-09-21T04:18:22.395Z,88.45
2022-09-21T04:19:22.446Z,87.98
2022-09-21T04:20:22.421Z,87.59
2022-09-21T04:21:22.507Z,87.78
2022-09-21T04:22:22.384Z,87.88
2022-09-21T04:23:22.372Z,87.78
2022-09-21T04:24:22.095Z,88.35
2022-09-21T04:25:22.082Z,88.35
2022-09-21T04:26:22.060Z,88.64
2022-09-21T04:27:22.046Z,88.64
2022-09-21T04:28:22.031Z,89.2
2022-09-21T04:29:22.266Z,88.73
2022-09-21T04:30:22.246Z,89.01
2022-09-21T04:31:22.429Z,88.73
2022-09-21T04:32:21.955Z,89.39
2022-09-21T04:33:21.943Z,89.01
2022-09-21T04:34:22.177Z,88.82
2022-09-21T04:35:22.165Z,88.73
2022-09-21T04:36:22.146Z,89.11
2022-09-21T04:37:22.260Z,88.82
2022-09-21T04:38:21.855Z,88.92
2022-09-21T04:39:22.096Z,88.82
2022-09-21T04:40:22.180Z,88.64
2022-09-21T04:41:22.059Z,88.26
2022-09-21T04:42:21.785Z,88.07
2022-09-21T04:43:25.074Z,87.5
2022-09-21T04:44:22.028Z,87.5
2022-09-21T04:45:21.737Z,87.69
2022-09-21T04:46:21.779Z,87.88
2022-09-21T04:47:21.701Z,87.5
2022-09-21T04:48:21.939Z,87.59
2022-09-21T04:49:21.923Z,87.69
2022-09-21T04:50:21.915Z,87.5
2022-09-21T04:51:21.887Z,87.59
2022-09-21T04:52:21.875Z,88.17
2022-09-21T04:53:21.916Z,88.26
2022-09-21T04:54:21.839Z,88.64
2022-09-21T04:55:21.815Z,88.26
2022-09-21T04:56:21.552Z,87.78
2022-09-21T04:57:21.786Z,87.31
2022-09-21T04:58:26.474Z,87.59
2022-09-21T04:59:21.751Z,87.4
2022-09-21T05:00:21.734Z,87.4
2022-09-21T05:01:21.595Z,87.59
2022-09-21T05:02:21.459Z,87.31
2022-09-21T05:03:21.515Z,88.07
2022-09-21T05:04:21.669Z,88.73
2022-09-21T05:05:21.646Z,88.45
2022-09-21T05:06:21.632Z,89.11
2022-09-21T05:07:21.613Z,88.73
2022-09-21T05:08:21.600Z,89.3
2022-09-21T05:09:21.628Z,88.92
2022-09-21T05:10:21.569Z,88.92
2022-09-21T05:11:21.556Z,89.11
2022-09-21T05:12:21.278Z,88.82
2022-09-21T05:13:22.083Z,89.2
2022-09-21T05:14:21.243Z,89.39
2022-09-21T05:15:21.221Z,89.39
2022-09-21T05:16:21.463Z,89.58
2022-09-21T05:17:21.188Z,89.3
2022-09-21T05:18:21.179Z,89.49
2022-09-21T05:19:21.408Z,89.2
2022-09-21T05:20:21.456Z,89.11
2022-09-21T05:21:21.372Z,88.92
2022-09-21T05:22:21.360Z,88.82
2022-09-21T05:23:21.085Z,88.92
2022-09-21T05:24:21.069Z,89.11
2022-09-21T05:25:21.355Z,88.45
2022-09-21T05:26:21.042Z,88.64
2022-09-21T05:27:21.276Z,88.54
2022-09-21T05:28:21.001Z,88.45
2022-09-21T05:29:21.263Z,88.45
2022-09-21T05:30:20.967Z,88.17
2022-09-21T05:31:21.423Z,87.88
2022-09-21T05:32:20.932Z,87.78
2022-09-21T05:33:21.172Z,87.5
2022-09-21T05:34:21.150Z,86.93
2022-09-21T05:35:21.139Z,86.74
2022-09-21T05:36:20.864Z,86.65
2022-09-21T05:37:20.849Z,86.65
2022-09-21T05:38:21.101Z,86.27
2022-09-21T05:39:21.069Z,86.74
2022-09-21T05:40:20.918Z,86.03
2022-09-21T05:41:21.081Z,86.31
2022-09-21T05:42:20.759Z,86.03
2022-09-21T05:43:20.744Z,86.22
2022-09-21T05:44:20.727Z,86.31
2022-09-21T05:45:20.749Z,86.22
2022-09-21T05:46:20.779Z,86.5
2022-09-21T05:47:20.681Z,86.6
2022-09-21T05:48:20.917Z,86.31
2022-09-21T05:49:20.898Z,86.31
2022-09-21T05:50:20.629Z,86.69
2022-09-21T05:51:20.868Z,86.5
2022-09-21T05:52:20.591Z,86.5
2022-09-21T05:53:20.832Z,86.5
2022-09-21T05:54:20.814Z,86.79
2022-09-21T05:55:20.543Z,86.6
2022-09-21T05:56:20.777Z,85.84
2022-09-21T05:57:20.817Z,85.65
2022-09-21T05:58:20.746Z,85.65
2022-09-21T05:59:20.476Z,85.84
2022-09-21T06:00:20.714Z,85.36
2022-09-21T06:01:20.836Z,85.17
2022-09-21T06:02:20.790Z,85.17
2022-09-21T06:03:20.409Z,85.17
2022-09-21T06:04:20.394Z,85.55
2022-09-21T06:05:20.628Z,85.55
2022-09-21T06:06:20.356Z,85.46
2022-09-21T06:07:20.344Z,85.55
2022-09-21T06:08:20.577Z,85.08
2022-09-21T06:09:20.312Z,84.99
2022-09-21T06:10:20.544Z,84.8
2022-09-21T06:11:20.529Z,84.89
2022-09-21T06:12:20.512Z,84.74
2022-09-21T06:13:20.543Z,84.74
2022-09-21T06:14:20.478Z,84.55
2022-09-21T06:15:20.218Z,84.46
2022-09-21T06:16:20.260Z,84.74
2022-09-21T06:17:20.431Z,84.36
2022-09-21T06:18:20.600Z,83.89
2022-09-21T06:19:20.397Z,84.17
2022-09-21T06:20:20.393Z,84.27
2022-09-21T06:21:20.369Z,84.08
2022-09-21T06:22:20.088Z,83.61
2022-09-21T06:23:20.329Z,83.51
2022-09-21T06:24:20.315Z,83.23
2022-09-21T06:25:20.459Z,83.04
2022-09-21T06:26:20.285Z,82.75
2022-09-21T06:27:20.011Z,82.37
2022-09-21T06:28:19.991Z,82.18
2022-09-21T06:29:20.277Z,81.9
2022-09-21T06:30:19.958Z,81.66
2022-09-21T06:31:19.940Z,81.66
2022-09-21T06:32:23.110Z,81.75
2022-09-21T06:33:19.907Z,81.56
2022-09-21T06:34:20.152Z,81.27
2022-09-21T06:35:19.879Z,80.9
2022-09-21T06:36:19.876Z,80.9
2022-09-21T06:37:20.096Z,80.52
2022-09-21T06:38:20.087Z,80.37
2022-09-21T06:39:20.069Z,80.33
2022-09-21T06:40:21.127Z,80.75
2022-09-21T06:41:23.546Z,80.27
2022-09-21T06:42:19.768Z,80.37
2022-09-21T06:43:19.791Z,80.08
2022-09-21T06:44:19.989Z,80.08
2022-09-21T06:45:20.019Z,79.52
2022-09-21T06:46:20.045Z,79.8
2022-09-21T06:47:19.690Z,79.8
2022-09-21T06:48:19.929Z,79.17
2022-09-21T06:49:19.653Z,78.99
2022-09-21T06:50:19.896Z,79.08
2022-09-21T06:51:19.624Z,79.17
2022-09-21T06:52:19.619Z,79.17
2022-09-21T06:53:19.594Z,79.27
2022-09-21T06:54:19.841Z,78.99
2022-09-21T06:55:19.561Z,79.17
2022-09-21T06:56:19.806Z,78.8
2022-09-21T06:57:19.786Z,78.51
2022-09-21T06:58:19.522Z,78.8
2022-09-21T06:59:19.515Z,78.89
2022-09-21T07:00:19.490Z,78.89
2022-09-21T07:01:20.007Z,78.27
2022-09-21T07:02:19.786Z,78.27
2022-09-21T07:03:19.443Z,77.98
2022-09-21T07:04:25.194Z,78.08
2022-09-21T07:05:19.414Z,78.08
2022-09-21T07:06:19.658Z,77.79
2022-09-21T07:07:19.639Z,77.41
2022-09-21T07:10:23.613Z,77.79
2022-09-21T07:11:23.247Z,77.98
2022-09-21T07:12:23.498Z,77.89
2022-09-21T07:13:23.474Z,77.98
2022-09-21T07:14:23.461Z,78.64
2022-09-21T07:15:23.185Z,78.64
2022-09-21T07:16:23.719Z,78.93
2022-09-21T07:17:23.412Z,79.03
2022-09-21T07:18:23.408Z,78.27
2022-09-21T07:19:23.383Z,78.64
2022-09-21T07:20:23.370Z,78.08
2022-09-21T07:21:23.353Z,77.6
2022-09-21T07:22:23.343Z,77.41
2022-09-21T07:23:23.069Z,77.12
2022-09-21T07:24:23.328Z,77.12
2022-09-21T07:25:23.044Z,76.78
2022-09-21T07:26:23.028Z,76.88
2022-09-21T07:27:23.269Z,76.78
2022-09-21T07:28:23.003Z,76.5
2022-09-21T07:29:23.242Z,76.69
2022-09-21T07:30:22.972Z,76.35
2022-09-21T07:31:23.041Z,76.25
2022-09-21T07:32:23.248Z,76.35
2022-09-21T07:33:22.931Z,76.16
2022-09-21T07:34:23.175Z,76.92
2022-09-21T07:35:22.901Z,76.73
2022-09-21T07:36:23.149Z,76.63
2022-09-21T07:37:22.877Z,76.73
2022-09-21T07:38:22.863Z,76.92
2022-09-21T07:39:22.846Z,76.82
2022-09-21T07:40:27.317Z,76.73
2022-09-21T07:41:23.079Z,76.88
2022-09-21T07:42:23.035Z,77.36
2022-09-21T07:43:22.791Z,77.55
2022-09-21T07:44:23.038Z,77.36
2022-09-21T07:45:23.121Z,77.83
2022-09-21T07:46:23.011Z,77.55
2022-09-21T07:47:22.739Z,77.73
2022-09-21T07:48:23.029Z,77.73
2022-09-21T07:49:22.966Z,77.17
2022-09-21T07:50:23.045Z,77.07
2022-09-21T07:51:22.684Z,77.17
2022-09-21T07:52:22.672Z,76.88
2022-09-21T07:53:22.915Z,77.07
2022-09-21T07:54:22.900Z,76.97
2022-09-21T07:55:22.630Z,76.88
2022-09-21T07:56:22.644Z,76.78
2022-09-21T07:57:22.857Z,76.97
2022-09-21T07:58:22.847Z,76.78
2022-09-21T07:59:22.829Z,76.69
2022-09-21T08:00:22.925Z,76.54
2022-09-21T08:01:22.789Z,76.16
2022-09-21T08:02:22.925Z,76.16
2022-09-21T08:03:22.524Z,75.49
2022-09-21T08:04:22.867Z,75.4
2022-09-21T08:05:22.749Z,75.49
2022-09-21T08:06:22.738Z,75.11
2022-09-21T08:07:22.726Z,75.68
2022-09-21T08:08:22.713Z,75.87
2022-09-21T08:09:22.444Z,76.35
2022-09-21T08:10:22.428Z,76.35
2022-09-21T08:11:22.673Z,76.54
2022-09-21T08:12:22.657Z,76.82
2022-09-21T08:13:22.646Z,76.92
2022-09-21T08:14:28.402Z,77.01
2022-09-21T08:15:50.392Z,76.35
2022-09-21T08:16:22.821Z,76.35
2022-09-21T08:17:22.334Z,75.49
2022-09-21T08:18:22.575Z,75.4
2022-09-21T08:19:22.566Z,74.73
2022-09-21T08:20:22.762Z,74.77
2022-09-21T08:21:22.551Z,74.1
2022-09-21T08:22:22.521Z,73.63
2022-09-21T08:23:22.522Z,73.85
2022-09-21T08:24:22.395Z,73.57
2022-09-21T08:25:22.232Z,73.85
2022-09-21T08:26:22.215Z,73.19
2022-09-21T08:27:24.842Z,72.9
2022-09-21T08:28:22.450Z,73.66
2022-09-21T08:29:22.436Z,73.47
2022-09-21T08:30:22.167Z,74.14
2022-09-21T08:31:22.493Z,73.85
2022-09-21T08:32:52.128Z,74.24
2022-09-21T08:33:24.865Z,73.95
2022-09-21T08:34:22.370Z,74.33
2022-09-21T08:35:22.107Z,74.43
2022-09-21T08:36:22.397Z,75.47
2022-09-21T08:37:22.338Z,75.76
2022-09-21T08:38:22.063Z,75.76
2022-09-21T08:39:22.309Z,74.8
2022-09-21T08:40:22.206Z,74.33
2022-09-21T08:41:22.029Z,73.95
2022-09-21T08:42:22.269Z,75.19
2022-09-21T08:43:22.003Z,75.95
2022-09-21T08:44:21.993Z,77.03
2022-09-21T08:45:22.235Z,77.76
2022-09-21T08:46:22.337Z,80.13
2022-09-21T08:47:21.956Z,79.75
2022-09-21T08:48:30.072Z,78.99
2022-09-21T08:49:21.931Z,79.85
2022-09-21T08:50:21.916Z,80.42
2022-09-21T08:51:21.923Z,78.99
2022-09-21T08:52:22.216Z,78.04
2022-09-21T08:53:22.073Z,78.42
2022-09-21T08:54:22.120Z,78.8
2022-09-21T08:55:22.112Z,77.85
2022-09-21T08:56:22.095Z,78.8
2022-09-21T08:57:22.086Z,80.18
2022-09-21T08:58:22.077Z,80.08
2022-09-21T08:59:22.060Z,78.85
2022-09-21T09:00:22.108Z,78.37
2022-09-21T09:01:21.956Z,78.75
2022-09-21T09:02:22.203Z,79.03
2022-09-21T09:03:21.756Z,79.03
2022-09-21T09:04:22.000Z,79.93
2022-09-21T09:05:21.999Z,80.5
2022-09-21T09:06:26.851Z,80.41
2022-09-21T09:07:21.969Z,81.46
2022-09-21T09:08:22.013Z,82.21
2022-09-21T09:09:21.943Z,82.92
2022-09-21T09:10:21.708Z,82.92
2022-09-21T09:11:21.919Z,82.17
2022-09-21T09:12:21.911Z,83.78
2022-09-21T09:13:21.897Z,85.25
2022-09-21T09:14:21.889Z,86.21
2022-09-21T09:15:21.871Z,89.36
2022-09-21T09:16:21.733Z,89.74
2022-09-21T09:17:21.606Z,90.69
2022-09-21T09:18:21.841Z,92.98
2022-09-21T09:19:21.827Z,95.46
2022-09-21T09:20:21.630Z,96.32
2022-09-21T09:21:32.532Z,98.61
2022-09-21T09:22:21.807Z,99.37
2022-09-21T09:23:21.783Z,99.99
2022-09-21T09:24:21.823Z,99.99
2022-09-21T09:25:21.502Z,99.99
2022-09-21T09:26:21.490Z,99.99
2022-09-21T09:27:21.740Z,99.99
2022-09-21T09:28:21.729Z,99.99
2022-09-21T09:29:21.458Z,99.99
2022-09-21T09:30:21.801Z,99.99
2022-09-21T09:31:21.874Z,99.99
2022-09-21T09:32:21.685Z,99.99
2022-09-21T09:33:21.671Z,99.99
2022-09-21T09:34:21.664Z,99.99
2022-09-21T09:35:21.650Z,99.99
2022-09-21T09:36:57.639Z,99.99
2022-09-21T09:37:21.631Z,99.99
2022-09-21T09:38:21.623Z,99.99
2022-09-21T09:39:21.358Z,99.99
2022-09-21T09:40:21.831Z,99.99
2022-09-21T09:41:21.618Z,99.99
2022-09-21T09:42:21.579Z,99.99
2022-09-21T09:43:21.332Z,99.99
2022-09-21T09:44:21.306Z,99.99
2022-09-21T09:45:25.967Z,99.99
2022-09-21T09:46:21.707Z,99.99
2022-09-21T09:47:21.529Z,99.99
2022-09-21T09:48:21.268Z,99.99
2022-09-21T09:49:21.524Z,99.99
2022-09-21T09:50:21.324Z,99.99
2022-09-21T09:51:21.233Z,99.99
2022-09-21T09:52:21.474Z,99.99
2022-09-21T09:53:21.471Z,99.99
2022-09-21T09:54:21.465Z,99.99
2022-09-21T09:55:21.195Z,99.99
2022-09-21T09:56:21.486Z,99.99
2022-09-21T09:57:21.433Z,99.99
2022-09-21T09:58:21.429Z,99.99
2022-09-21T09:59:21.409Z,99.99
2022-09-21T10:00:21.474Z,99.99
2022-09-21T10:01:21.246Z,99.99
2022-09-21T10:02:21.376Z,99.99
2022-09-21T10:03:21.372Z,99.99
2022-09-21T10:04:21.480Z,99.99
2022-09-21T10:05:21.353Z,99.99
2022-09-21T10:06:21.085Z,99.99
2022-09-21T10:07:21.335Z,99.99
2022-09-21T10:08:21.320Z,99.99
2022-09-21T10:09:21.311Z,99.99
2022-09-21T10:10:21.363Z,99.99
2022-09-21T10:11:21.037Z,99.99
2022-09-21T10:12:21.338Z,99.99
2022-09-21T10:13:21.031Z,99.99
2022-09-21T10:14:21.007Z,99.99
2022-09-21T10:15:21.256Z,99.99
2022-09-21T10:16:21.450Z,99.99
2022-09-21T10:17:21.238Z,99.99
2022-09-21T10:18:21.235Z,99.99
2022-09-21T10:19:21.213Z,99.99
2022-09-21T10:20:21.271Z,99.99
2022-09-21T10:21:21.196Z,99.99
2022-09-21T10:22:20.928Z,99.99
2022-09-21T10:23:21.175Z,99.99
2022-09-21T10:24:20.906Z,99.99
2022-09-21T10:25:21.155Z,99.99
2022-09-21T10:26:20.890Z,99.99
2022-09-21T10:27:21.140Z,99.99
2022-09-21T10:28:21.195Z,99.99
2022-09-21T10:29:20.861Z,99.99
2022-09-21T10:30:21.159Z,99.99
2022-09-21T10:31:21.566Z,99.99
2022-09-21T10:32:21.086Z,99.99
2022-09-21T10:33:21.084Z,99.99
2022-09-21T10:34:21.069Z,99.99
2022-09-21T10:35:21.058Z,99.99
2022-09-21T10:36:21.055Z,99.99
2022-09-21T10:37:20.786Z,96.13
2022-09-21T10:38:24.805Z,96.08
2022-09-21T10:39:20.771Z,92.97
2022-09-21T10:40:21.306Z,92.59
2022-09-21T10:41:21.007Z,92.3
2022-09-21T10:42:21.009Z,93.6
2022-09-21T10:43:20.990Z,95.98
2022-09-21T10:44:21.041Z,96.75
2022-09-21T10:45:20.711Z,97.89
2022-09-21T10:46:21.084Z,97.89
2022-09-21T10:47:20.953Z,97.03
2022-09-21T10:48:20.947Z,97.23
2022-09-21T10:49:20.929Z,98.32
2022-09-21T10:50:20.665Z,99.37
2022-09-21T10:51:20.910Z,97.27
2022-09-21T10:52:20.902Z,97.08
2022-09-21T10:53:20.889Z,94.7
2022-09-21T10:54:20.886Z,94.98
2022-09-21T10:55:20.621Z,96.13
2022-09-21T10:56:21.058Z,97.47
2022-09-21T10:57:20.601Z,98.18
2022-09-21T10:58:20.593Z,98.66
2022-09-21T10:59:20.865Z,99.99
2022-09-21T11:00:20.948Z,99.99
2022-09-21T11:01:20.969Z,99.99
2022-09-21T11:02:20.902Z,99.99
2022-09-21T11:03:20.544Z,99.99
2022-09-21T11:04:20.532Z,99.99
2022-09-21T11:05:20.783Z,99.99
2022-09-21T11:06:20.518Z,99.99
2022-09-21T11:07:20.772Z,99.99
2022-09-21T11:08:20.753Z,99.99
2022-09-21T11:09:20.485Z,99.99
2022-09-21T11:10:20.533Z,99.99
2022-09-21T11:11:20.721Z,99.99
2022-09-21T11:12:20.717Z,99.99
2022-09-21T11:13:20.449Z,99.99
2022-09-21T11:14:20.704Z,99.99
2022-09-21T11:15:20.678Z,99.99
2022-09-21T11:16:20.931Z,99.99
2022-09-21T11:17:20.411Z,99.99
2022-09-21T11:18:20.400Z,99.99
2022-09-21T11:19:20.650Z,99.38
2022-09-21T11:20:20.484Z,97.94
2022-09-21T11:21:20.627Z,96.61
2022-09-21T11:22:20.620Z,95.79
2022-09-21T11:23:20.353Z,95.79
2022-09-21T11:24:20.608Z,97.13
2022-09-21T11:25:20.590Z,97.23
2022-09-21T11:26:20.581Z,97.85
2022-09-21T11:27:20.571Z,98.42
2022-09-21T11:28:20.570Z,99.18
2022-09-21T11:29:20.683Z,99.99
2022-09-21T11:30:20.483Z,99.28
2022-09-21T11:31:20.398Z,99.99
2022-09-21T11:32:20.575Z,99.99
2022-09-21T11:33:20.264Z,99.99
2022-09-21T11:34:20.251Z,99.99
2022-09-21T11:35:20.499Z,99.99
2022-09-21T11:36:20.234Z,99.99
2022-09-21T11:37:20.485Z,99.99
2022-09-21T11:38:20.467Z,99.99
2022-09-21T11:39:20.462Z,99.99
2022-09-21T11:40:20.662Z,99.99
2022-09-21T11:41:20.444Z,99.28
2022-09-21T11:42:20.184Z,98.61
2022-09-21T11:43:24.322Z,98.61
2022-09-21T11:44:21.720Z,99.38
2022-09-21T11:45:20.151Z,99.28
2022-09-21T11:46:20.304Z,97.66
2022-09-21T11:47:20.393Z,94.02
2022-09-21T11:48:20.429Z,93.07
2022-09-21T11:49:20.379Z,90.88
2022-09-21T11:50:35.802Z,87.15
2022-09-21T11:51:20.363Z,87.39
2022-09-21T11:52:20.345Z,88.25
2022-09-21T11:53:20.106Z,89.39
2022-09-21T11:54:20.346Z,89.97
2022-09-21T11:55:20.323Z,89.68
2022-09-21T11:56:20.057Z,89.97
2022-09-21T11:57:20.053Z,90.83
2022-09-21T11:58:20.304Z,90.54
2022-09-21T11:59:20.027Z,90.64
2022-09-21T12:00:20.302Z,89.59
2022-09-21T12:01:20.291Z,89.2
2022-09-21T12:02:20.494Z,89.78
2022-09-21T12:03:19.996Z,89.68
2022-09-21T12:04:20.307Z,89.01
2022-09-21T12:05:20.234Z,89.39
2022-09-21T12:06:20.221Z,90.64
2022-09-21T12:07:20.216Z,91.11
2022-09-21T12:08:19.957Z,90.64
2022-09-21T12:09:20.194Z,90.06
2022-09-21T12:10:19.939Z,90.45
2022-09-21T12:11:19.927Z,91.97
2022-09-21T12:12:19.914Z,92.36
2022-09-21T12:13:20.161Z,93.21
2022-09-21T12:14:19.894Z,93.21
2022-09-21T12:15:20.378Z,92.45
2022-09-21T12:16:19.998Z,91.88
2022-09-21T12:17:19.887Z,88.96
2022-09-21T12:18:20.115Z,87.01
2022-09-21T12:19:19.855Z,85.96
2022-09-21T12:20:20.151Z,86.05
2022-09-21T12:21:19.832Z,86.63
2022-09-21T12:22:20.083Z,86.38
2022-09-21T12:23:19.814Z,86.47
2022-09-21T12:24:19.806Z,86.29
2022-09-21T12:25:20.052Z,86.1
2022-09-21T12:26:20.045Z,85.62
2022-09-21T12:27:20.033Z,86.29
2022-09-21T12:28:20.028Z,86
2022-09-21T12:29:20.015Z,86.29
2022-09-21T12:30:20.014Z,86.43
2022-09-21T12:31:20.139Z,86.33
2022-09-21T12:32:19.993Z,84.8
2022-09-21T12:33:19.983Z,84.03
2022-09-21T12:34:19.724Z,82.89
2022-09-21T12:35:19.711Z,82.12
2022-09-21T12:36:20.021Z,80.4
2022-09-21T12:37:19.697Z,78.68
2022-09-21T12:38:19.975Z,78.81
2022-09-21T12:39:19.930Z,78.05
2022-09-21T12:40:19.762Z,77.57
2022-09-21T12:41:19.661Z,76.71
2022-09-21T12:42:19.910Z,76.81
2022-09-21T12:43:19.645Z,76.04
2022-09-21T12:44:19.896Z,74.41
2022-09-21T12:45:19.627Z,74.04
2022-09-21T12:46:20.139Z,73.99
2022-09-21T12:47:19.612Z,74.48
2022-09-21T12:48:19.861Z,75.14
2022-09-21T12:49:19.850Z,75.71
2022-09-21T12:50:19.845Z,76.29
2022-09-21T12:51:19.585Z,75.91
2022-09-21T12:52:20.054Z,76.29
2022-09-21T12:53:19.561Z,75.91
2022-09-21T12:54:19.820Z,76.2
2022-09-21T12:55:20.006Z,75.71
2022-09-21T12:56:19.539Z,75.91
2022-09-21T12:57:59.063Z,75.81
2022-09-21T12:58:23.362Z,75.34
2022-09-21T12:59:23.101Z,75.14
2022-09-21T13:00:23.091Z,75.34
2022-09-21T13:01:23.595Z,75.14
2022-09-21T13:02:23.476Z,75.24
2022-09-21T13:03:23.068Z,75.71
2022-09-21T13:04:23.315Z,74.09
2022-09-21T13:05:23.047Z,74.09
2022-09-21T13:06:23.297Z,75.34
2022-09-21T13:07:23.396Z,75.52
2022-09-21T13:08:23.025Z,76.96
2022-09-21T13:09:23.274Z,77.25
2022-09-21T13:10:23.013Z,76.96
2022-09-21T13:11:23.256Z,76.96
2022-09-21T13:12:23.250Z,77.53
2022-09-21T13:13:22.984Z,77.25